Time;durP1;ratioP1;P1;durP2;ratioP2;P2;SDS_P1;SDS_P2;PMS_P1;PMS_P2;Temp;Humidity;BMP_temperature;BMP_pressure;BME280_temperature;BME280_humidity;BME280_pressure;Samples;Min_cycle;Max_cycle;Signal;HPM_P1;HPM_P2
2023/10/04 00:02:09;;;;;;;0.97;0.70;;;;;;;16.31;86.24;96619.09;4341601;32;20173;-61
2023/10/04 00:04:35;;;;;;;0.83;0.57;;;;;;;16.26;85.35;96621.88;4345406;32;20274;-61
2023/10/04 00:07:04;;;;;;;0.63;0.63;;;;;;;16.31;85.95;96611.06;4346205;32;20205;-61
2023/10/04 00:09:32;;;;;;;0.20;0.20;;;;;;;16.05;84.13;96607.28;4350557;32;20196;-62
2023/10/04 00:11:59;;;;;;;1.93;0.80;;;;;;;15.98;84.80;96613.06;4354561;32;20189;-61
2023/10/04 00:14:26;;;;;;;0.30;0.30;;;;;;;16.03;86.43;96612.13;4361270;32;20220;-62
2023/10/04 00:16:59;;;;;;;0.33;0.33;;;;;;;16.10;85.06;96615.22;4351826;32;20201;-62
2023/10/04 00:19:28;;;;;;;0.30;0.30;;;;;;;16.14;84.71;96626.94;4356759;32;20196;-61
2023/10/04 00:21:58;;;;;;;0.70;0.67;;;;;;;16.13;85.78;96630.72;4334778;32;20268;-61
2023/10/04 00:24:23;;;;;;;0.20;0.20;;;;;;;16.10;84.53;96631.28;4342899;32;20235;-61
2023/10/04 00:27:10;;;;;;;0.23;0.23;;;;;;;16.10;84.27;96624.06;4362933;32;20208;-61
2023/10/04 00:29:38;;;;;;;0.37;0.37;;;;;;;16.27;83.81;96620.78;4352710;32;20201;-61
2023/10/04 00:32:05;;;;;;;0.67;0.67;;;;;;;16.17;84.46;96623.69;4332287;32;20196;-61
2023/10/04 00:34:33;;;;;;;0.83;0.30;;;;;;;16.38;84.93;96616.03;4360857;32;20185;-61
2023/10/04 00:36:58;;;;;;;0.77;0.77;;;;;;;16.38;84.28;96616.84;4362295;32;20197;-62
2023/10/04 00:39:25;;;;;;;1.70;0.87;;;;;;;16.24;81.90;96609.87;4347325;32;20246;-62
2023/10/04 00:41:53;;;;;;;0.37;0.37;;;;;;;16.18;80.31;96611.88;4361236;32;20190;-61
2023/10/04 00:44:19;;;;;;;5.40;0.50;;;;;;;16.14;82.96;96610.88;4318563;32;20193;-61
2023/10/04 00:46:45;;;;;;;0.53;0.53;;;;;;;16.06;82.86;96606.19;4359294;32;20191;-61
2023/10/04 00:49:12;;;;;;;0.67;0.67;;;;;;;16.18;83.55;96611.88;4355713;32;20264;-61
2023/10/04 00:51:40;;;;;;;0.27;0.27;;;;;;;16.17;82.98;96609.50;4344062;32;20182;-61
2023/10/04 00:54:09;;;;;;;0.47;0.47;;;;;;;16.15;83.64;96612.47;4340414;32;20245;-62
2023/10/04 00:56:38;;;;;;;1.47;0.83;;;;;;;16.12;84.53;96602.34;4347189;32;20289;-62
2023/10/04 00:59:06;;;;;;;0.77;0.60;;;;;;;16.08;83.35;96590.62;4321012;32;20254;-61
2023/10/04 01:01:31;;;;;;;0.93;0.77;;;;;;;16.11;84.26;96592.72;4353871;32;20264;-61
2023/10/04 01:04:01;;;;;;;0.40;0.40;;;;;;;16.25;83.72;96585.47;4358919;32;20189;-61
2023/10/04 01:06:30;;;;;;;0.43;0.43;;;;;;;16.36;84.25;96578.84;4358748;32;20193;-61
2023/10/04 01:08:57;;;;;;;0.43;0.43;;;;;;;16.45;84.46;96578.91;4339597;32;20189;-62
2023/10/04 01:11:24;;;;;;;2.43;0.67;;;;;;;16.44;84.24;96578.13;4330307;32;20186;-61
2023/10/04 01:14:01;;;;;;;0.80;0.43;;;;;;;16.48;83.24;96573.75;4364194;32;20189;-62
2023/10/04 01:16:41;;;;;;;0.97;0.73;;;;;;;16.55;84.03;96577.94;4375368;32;20256;-61
2023/10/04 01:19:06;;;;;;;1.00;0.37;;;;;;;16.12;84.38;96575.56;4375450;32;20172;-62
2023/10/04 01:21:33;;;;;;;0.23;0.23;;;;;;;16.38;84.72;96567.84;4373271;32;20234;-61
2023/10/04 01:23:59;;;;;;;0.70;0.70;;;;;;;16.44;84.50;96566.62;4367164;32;20185;-61
2023/10/04 01:26:27;;;;;;;0.37;0.30;;;;;;;16.41;84.25;96569.91;4330995;32;20238;-61
2023/10/04 01:28:53;;;;;;;0.47;0.47;;;;;;;16.41;83.21;96572.59;4363898;32;20188;-61
2023/10/04 01:31:19;;;;;;;0.50;0.50;;;;;;;16.34;85.06;96562.28;4354628;32;20200;-61
2023/10/04 01:33:44;;;;;;;0.60;0.60;;;;;;;16.35;84.00;96563.06;4364533;32;20208;-62
2023/10/04 01:36:10;;;;;;;0.67;0.40;;;;;;;16.23;84.92;96566.22;4334118;32;20193;-61
2023/10/04 01:38:37;;;;;;;0.50;0.50;;;;;;;16.24;84.31;96565.13;4370723;32;20201;-61
2023/10/04 01:41:04;;;;;;;0.70;0.70;;;;;;;16.18;85.30;96563.69;4364866;32;20208;-61
2023/10/04 01:43:31;;;;;;;0.40;0.40;;;;;;;16.21;85.56;96557.69;4366937;32;20314;-62
2023/10/04 01:45:59;;;;;;;0.30;0.30;;;;;;;16.28;85.24;96568.81;4369914;32;20189;-61
2023/10/04 01:48:31;;;;;;;0.37;0.37;;;;;;;16.29;84.81;96564.25;4379058;32;20187;-62
2023/10/04 01:50:57;;;;;;;4.43;0.77;;;;;;;16.06;84.81;96563.37;4335836;32;20230;-61
2023/10/04 01:53:24;;;;;;;0.37;0.37;;;;;;;15.88;85.55;96565.03;4349335;32;20261;-62
2023/10/04 01:55:52;;;;;;;0.33;0.33;;;;;;;16.05;86.27;96553.75;4335261;32;20235;-61
2023/10/04 01:58:23;;;;;;;0.73;0.57;;;;;;;16.21;85.58;96560.38;4342885;32;20212;-61
2023/10/04 02:00:53;;;;;;;0.50;0.50;;;;;;;16.24;85.05;96562.47;4335202;32;20180;-61
2023/10/04 02:03:20;;;;;;;0.80;0.80;;;;;;;16.26;85.66;96546.91;4307302;32;20176;-61
2023/10/04 02:05:56;;;;;;;0.60;0.60;;;;;;;16.24;85.56;96559.00;4343633;32;20189;-61
2023/10/04 02:08:22;;;;;;;0.73;0.73;;;;;;;16.25;85.21;96552.53;4334779;32;20181;-62
2023/10/04 02:10:49;;;;;;;0.37;0.37;;;;;;;16.30;85.43;96555.94;4355953;32;20239;-61
2023/10/04 02:13:15;;;;;;;0.83;0.73;;;;;;;16.31;84.57;96548.69;4347664;32;20196;-61
2023/10/04 02:15:48;;;;;;;0.90;0.90;;;;;;;16.05;84.71;96548.37;4322788;32;20267;-61
2023/10/04 02:18:15;;;;;;;0.53;0.43;;;;;;;16.19;85.12;96549.19;4331191;32;20232;-61
2023/10/04 02:20:48;;;;;;;0.83;0.80;;;;;;;16.25;85.51;96539.94;4360078;32;20268;-61
2023/10/04 02:23:17;;;;;;;1.23;0.70;;;;;;;16.09;84.39;96549.38;4363079;32;20211;-61
2023/10/04 02:25:43;;;;;;;0.50;0.43;;;;;;;15.75;86.44;96550.56;4358930;32;20215;-61
2023/10/04 02:28:13;;;;;;;0.87;0.60;;;;;;;16.00;85.54;96540.47;4339871;32;20182;-61
2023/10/04 02:30:38;;;;;;;1.40;0.60;;;;;;;16.19;85.88;96541.16;4305495;32;20260;-61
2023/10/04 02:33:09;;;;;;;0.83;0.67;;;;;;;16.09;85.63;96541.34;4349245;32;20193;-62
2023/10/04 02:35:44;;;;;;;0.27;0.27;;;;;;;16.05;85.46;96541.16;4362773;32;20193;-61
2023/10/04 02:38:16;;;;;;;0.33;0.33;;;;;;;16.05;85.37;96540.34;4346954;32;20190;-61
2023/10/04 02:40:45;;;;;;;0.67;0.53;;;;;;;15.95;86.10;96538.69;4326386;32;20264;-60
2023/10/04 02:43:11;;;;;;;0.30;0.30;;;;;;;16.03;85.72;96545.22;4355359;32;20219;-61
2023/10/04 02:45:41;;;;;;;21.53;0.93;;;;;;;15.92;85.57;96535.81;4333874;32;20219;-61
2023/10/04 02:48:14;;;;;;;0.57;0.57;;;;;;;16.01;86.05;96542.84;4361765;32;20203;-61
2023/10/04 02:50:41;;;;;;;0.23;0.23;;;;;;;15.77;87.23;96548.41;4317048;32;20181;-60
2023/10/04 02:53:12;;;;;;;0.80;0.70;;;;;;;15.78;85.85;96549.19;4340352;32;20177;-61
2023/10/04 02:55:39;;;;;;;0.63;0.63;;;;;;;15.94;86.73;96555.84;4333810;32;20310;-61
2023/10/04 02:58:06;;;;;;;0.87;0.87;;;;;;;16.07;85.64;96551.56;4338930;32;20186;-61
2023/10/04 03:00:33;;;;;;;0.57;0.50;;;;;;;15.97;85.33;96555.25;4351661;32;20284;-60
2023/10/04 03:02:58;;;;;;;1.33;1.23;;;;;;;15.75;84.93;96547.91;4352959;32;20251;-60
2023/10/04 03:05:28;;;;;;;0.47;0.33;;;;;;;15.93;85.42;96545.41;4347224;32;20182;-60
2023/10/04 03:07:54;;;;;;;2.57;0.70;;;;;;;15.71;84.90;96549.56;4365180;32;20188;-61
2023/10/04 03:10:25;;;;;;;0.77;0.77;;;;;;;15.91;85.69;96545.72;4372714;32;20191;-61
2023/10/04 03:13:01;;;;;;;0.33;0.33;;;;;;;15.89;84.77;96542.53;4346891;32;20200;-61
2023/10/04 03:15:29;;;;;;;0.30;0.30;;;;;;;15.93;85.23;96540.06;4343844;32;20188;-61
2023/10/04 03:17:57;;;;;;;1.23;1.23;;;;;;;15.49;85.23;96541.37;4357984;32;20199;-61
2023/10/04 03:20:24;;;;;;;0.20;0.20;;;;;;;15.73;86.34;96544.72;4343802;32;20177;-61
2023/10/04 03:22:55;;;;;;;0.67;0.67;;;;;;;15.79;85.08;96550.78;4354895;32;20202;-61
2023/10/04 03:25:23;;;;;;;0.40;0.40;;;;;;;15.87;84.94;96546.59;4362539;32;20185;-60
2023/10/04 03:27:52;;;;;;;0.20;0.20;;;;;;;15.82;85.49;96545.59;4338163;32;20197;-61
2023/10/04 03:30:17;;;;;;;0.30;0.30;;;;;;;15.72;85.11;96545.81;4347740;32;20181;-61
2023/10/04 03:32:51;;;;;;;0.30;0.30;;;;;;;15.74;84.73;96543.63;4351815;32;20223;-61
2023/10/04 03:35:20;;;;;;;0.27;0.27;;;;;;;15.74;85.46;96543.63;4352561;32;20189;-60
2023/10/04 03:37:58;;;;;;;0.57;0.57;;;;;;;15.77;84.38;96548.41;4359465;32;20189;-60
2023/10/04 03:40:39;;;;;;;1.20;1.10;;;;;;;15.78;85.00;96549.19;4331613;32;20184;-61
2023/10/04 03:43:08;;;;;;;0.43;0.43;;;;;;;15.85;85.93;96548.78;4332334;32;20189;-61
2023/10/04 03:45:40;;;;;;;0.77;0.77;;;;;;;15.86;85.62;96537.78;4346163;32;20189;-60
2023/10/04 03:48:16;;;;;;;0.50;0.40;;;;;;;15.71;85.94;96546.88;4361454;32;20211;-61
2023/10/04 03:50:50;;;;;;;2.03;0.97;;;;;;;15.69;84.69;96545.59;4358614;32;20272;-61
2023/10/04 03:53:16;;;;;;;0.60;0.60;;;;;;;15.75;84.74;96547.91;4359936;32;20177;-61
2023/10/04 03:55:43;;;;;;;0.57;0.50;;;;;;;15.71;84.96;96548.78;4357262;32;20278;-61
2023/10/04 03:58:12;;;;;;;0.73;0.73;;;;;;;15.64;85.61;96549.16;4349933;32;20197;-61
2023/10/04 04:00:39;;;;;;;0.73;0.73;;;;;;;15.64;85.34;96553.69;4348215;32;20256;-61
2023/10/04 04:03:05;;;;;;;0.70;0.70;;;;;;;15.81;85.67;96551.25;4323688;32;20181;-60
2023/10/04 04:05:33;;;;;;;0.50;0.50;;;;;;;15.81;84.57;96560.06;4343543;32;20198;-61
2023/10/04 04:07:59;;;;;;;0.57;0.57;;;;;;;15.64;85.00;96554.50;4319991;32;20181;-61
2023/10/04 04:10:25;;;;;;;2.37;0.70;;;;;;;15.35;84.62;96560.06;4355388;32;20211;-61
2023/10/04 04:12:50;;;;;;;0.53;0.53;;;;;;;15.41;86.70;96560.75;4350690;32;20181;-60
2023/10/04 04:15:18;;;;;;;0.87;0.87;;;;;;;15.47;86.30;96565.72;4344964;32;20268;-60
2023/10/04 04:17:45;;;;;;;0.40;0.40;;;;;;;15.44;85.91;96557.50;4357986;32;20242;-61
2023/10/04 04:20:15;;;;;;;0.60;0.57;;;;;;;15.52;86.57;96554.16;4346869;32;20185;-60
2023/10/04 04:22:46;;;;;;;0.70;0.70;;;;;;;15.41;86.53;96550.06;4333502;32;20188;-61
2023/10/04 04:25:17;;;;;;;0.27;0.27;;;;;;;15.58;86.18;96558.38;4340881;32;20282;-61
2023/10/04 04:27:44;;;;;;;0.73;0.73;;;;;;;15.52;85.32;96546.13;4355582;32;20306;-61
2023/10/04 04:30:20;;;;;;;0.30;0.30;;;;;;;15.57;85.48;96548.75;4365694;32;20189;-61
2023/10/04 04:32:47;;;;;;;1.07;1.03;;;;;;;15.62;85.29;96551.31;4349781;32;20202;-61
2023/10/04 04:35:22;;;;;;;0.83;0.73;;;;;;;15.71;85.30;96556.78;4354508;32;20220;-61
2023/10/04 04:37:54;;;;;;;1.30;0.77;;;;;;;15.49;85.66;96562.75;4358788;32;20250;-61
2023/10/04 04:40:26;;;;;;;2.57;1.47;;;;;;;15.50;84.60;96575.06;4362338;32;20241;-61
2023/10/04 04:43:01;;;;;;;2.70;1.57;;;;;;;15.31;85.16;96568.97;4345557;32;20215;-61
2023/10/04 04:45:28;;;;;;;0.50;0.50;;;;;;;15.42;86.56;96573.03;4351784;32;20242;-60
2023/10/04 04:47:55;;;;;;;2.17;1.30;;;;;;;15.43;86.29;96566.59;4325740;32;20189;-61
2023/10/04 04:50:24;;;;;;;0.87;0.70;;;;;;;15.42;86.65;96573.84;4357550;32;20196;-61
2023/10/04 04:52:50;;;;;;;0.20;0.20;;;;;;;15.46;85.89;96568.69;4358952;32;20216;-61
2023/10/04 04:55:16;;;;;;;0.77;0.77;;;;;;;15.52;85.43;96561.38;4331122;32;20204;-60
2023/10/04 04:57:42;;;;;;;0.50;0.50;;;;;;;15.51;85.44;96565.94;4356584;32;20325;-60
2023/10/04 05:00:30;;;;;;;0.43;0.43;;;;;;;15.48;85.63;96571.87;4356772;32;20185;-60
2023/10/04 05:02:54;;;;;;;0.70;0.70;;;;;;;15.34;86.06;96574.53;4344297;32;20181;-61
2023/10/04 05:05:20;;;;;;;0.60;0.60;;;;;;;15.43;86.11;96574.62;4363167;32;20206;-61
2023/10/04 05:07:47;;;;;;;3.60;0.90;;;;;;;15.41;86.01;96582.94;4352470;32;20191;-61
2023/10/04 05:10:17;;;;;;;1.17;1.17;;;;;;;15.29;86.42;96582.62;4339026;32;20192;-60
2023/10/04 05:12:46;;;;;;;1.47;1.13;;;;;;;15.14;85.46;96577.50;4358674;32;20203;-61
2023/10/04 05:15:23;;;;;;;0.87;0.87;;;;;;;15.29;86.34;96581.81;4357075;32;20327;-61
2023/10/04 05:17:51;;;;;;;0.33;0.33;;;;;;;15.42;85.29;96583.72;4361289;32;20244;-61
2023/10/04 05:20:21;;;;;;;0.90;0.90;;;;;;;15.43;86.06;96580.78;4353867;32;20189;-61
2023/10/04 05:22:49;;;;;;;1.07;1.07;;;;;;;15.42;84.96;96583.72;4355960;32;20185;-60
2023/10/04 05:25:16;;;;;;;0.90;0.90;;;;;;;15.39;85.23;96574.41;4352461;32;20272;-61
2023/10/04 05:27:43;;;;;;;0.90;0.90;;;;;;;15.11;86.08;96588.78;4349509;32;21892;-61
2023/10/04 05:30:15;;;;;;;0.97;0.73;;;;;;;15.10;85.38;96592.53;4337381;32;20312;-61
2023/10/04 05:32:43;;;;;;;0.73;0.73;;;;;;;15.12;86.25;96585.81;4354466;32;20275;-61
2023/10/04 05:35:13;;;;;;;0.23;0.23;;;;;;;15.04;85.08;96588.34;4346014;32;20235;-61
2023/10/04 05:37:42;;;;;;;1.60;0.70;;;;;;;15.18;86.11;96583.03;4361351;32;20207;-61
2023/10/04 05:40:16;;;;;;;3.13;1.33;;;;;;;15.21;86.22;96585.16;4359384;32;20231;-61
2023/10/04 05:43:05;;;;;;;0.93;0.93;;;;;;;15.19;85.57;96592.66;4369877;32;20285;-61
2023/10/04 05:45:31;;;;;;;0.70;0.70;;;;;;;15.11;85.83;96600.28;4328816;32;20181;-61
2023/10/04 05:47:57;;;;;;;1.23;0.77;;;;;;;15.15;84.97;96600.50;4342557;32;20173;-61
2023/10/04 05:50:23;;;;;;;1.80;1.07;;;;;;;15.19;85.90;96608.69;4344403;32;20185;-61
2023/10/04 05:52:54;;;;;;;0.50;0.50;;;;;;;15.11;85.51;96608.28;4362738;32;20203;-61
2023/10/04 05:55:20;;;;;;;1.03;0.60;;;;;;;15.14;85.76;96614.94;4371502;32;20185;-61
2023/10/04 05:57:48;;;;;;;0.70;0.70;;;;;;;15.23;84.86;96617.72;4349171;32;20190;-60
2023/10/04 06:00:33;;;;;;;0.70;0.70;;;;;;;15.26;84.63;96622.50;4344439;32;20214;-61
2023/10/04 06:03:06;;;;;;;2.57;0.97;;;;;;;15.21;85.39;96622.56;4360488;32;20215;-61
2023/10/04 06:05:39;;;;;;;1.03;1.03;;;;;;;15.06;84.42;96628.94;4344588;32;20197;-61
2023/10/04 06:08:10;;;;;;;0.97;0.97;;;;;;;14.89;82.98;96629.44;4352400;32;20185;-61
2023/10/04 06:10:36;;;;;;;0.43;0.43;;;;;;;15.00;86.18;96624.75;4352590;32;20306;-61
2023/10/04 06:13:07;;;;;;;0.90;0.90;;;;;;;14.96;84.77;96629.91;4350505;32;20195;-60
2023/10/04 06:15:39;;;;;;;0.70;0.70;;;;;;;14.99;85.19;96636.50;4362026;32;20196;-61
2023/10/04 06:18:08;;;;;;;0.70;0.70;;;;;;;14.86;85.09;96632.69;4352630;32;20262;-61
2023/10/04 06:20:45;;;;;;;1.00;1.00;;;;;;;14.67;83.78;96626.53;4352256;32;20258;-61
2023/10/04 06:23:14;;;;;;;0.97;0.97;;;;;;;14.65;86.31;96631.38;4347682;32;20215;-60
2023/10/04 06:25:45;;;;;;;1.40;1.40;;;;;;;15.02;86.75;96636.75;4340891;32;20200;-61
2023/10/04 06:28:13;;;;;;;0.53;0.53;;;;;;;14.96;85.12;96640.59;4340613;32;20196;-61
2023/10/04 06:30:48;;;;;;;0.40;0.40;;;;;;;15.10;85.38;96646.78;4353948;32;20201;-61
2023/10/04 06:33:15;;;;;;;0.60;0.60;;;;;;;15.21;85.07;96649.31;4362344;32;20302;-60
2023/10/04 06:35:43;;;;;;;0.90;0.90;;;;;;;15.08;83.00;96648.97;4309865;32;20188;-61
2023/10/04 06:38:12;;;;;;;7.43;1.33;;;;;;;15.05;84.95;96646.84;4352372;32;20185;-61
2023/10/04 06:40:40;;;;;;;1.00;1.00;;;;;;;15.16;84.72;96647.53;4361861;32;20206;-61
2023/10/04 06:43:08;;;;;;;0.33;0.33;;;;;;;15.05;84.39;96654.87;4360037;32;20215;-60
2023/10/04 06:45:37;;;;;;;0.70;0.70;;;;;;;15.18;85.64;96653.34;4355431;32;20181;-61
2023/10/04 06:48:05;;;;;;;0.80;0.80;;;;;;;15.21;84.78;96650.09;4336363;32;20260;-60
2023/10/04 06:50:43;;;;;;;3.17;1.00;;;;;;;15.06;83.71;96666.38;4324512;32;20170;-60
2023/10/04 06:53:12;;;;;;;0.40;0.40;;;;;;;15.11;84.35;96667.09;4359033;32;20254;-61
2023/10/04 06:55:40;;;;;;;2.57;1.37;;;;;;;15.22;82.89;96665.06;4360291;32;20265;-60
2023/10/04 06:58:10;;;;;;;1.03;0.93;;;;;;;15.28;83.88;96660.44;4354621;32;20248;-60
2023/10/04 07:00:38;;;;;;;1.03;1.03;;;;;;;15.21;82.60;96665.34;4363119;32;20185;-59
2023/10/04 07:03:05;;;;;;;0.77;0.77;;;;;;;14.80;81.10;96657.88;4359686;32;20177;-59
2023/10/04 07:05:36;;;;;;;1.03;0.97;;;;;;;14.57;81.72;96653.34;4313841;32;20198;-59
2023/10/04 07:08:05;;;;;;;1.50;1.30;;;;;;;14.47;82.61;96664.16;4340689;32;20260;-59
2023/10/04 07:10:31;;;;;;;1.77;1.63;;;;;;;14.54;82.37;96670.78;4325935;32;20209;-59
2023/10/04 07:12:59;;;;;;;0.93;0.93;;;;;;;14.58;82.21;96665.63;4338288;32;20185;-59
2023/10/04 07:15:41;;;;;;;1.53;1.40;;;;;;;14.46;82.58;96658.03;4344725;32;20243;-59
2023/10/04 07:18:09;;;;;;;0.50;0.50;;;;;;;14.49;82.81;96670.03;4313341;32;20236;-60
2023/10/04 07:20:36;;;;;;;0.60;0.60;;;;;;;14.53;82.78;96665.72;4350094;32;20177;-58
2023/10/04 07:23:07;;;;;;;1.00;1.00;;;;;;;14.71;82.25;96670.31;4362183;32;20188;-59
2023/10/04 07:25:34;;;;;;;1.80;1.23;;;;;;;14.68;82.25;96668.19;4353191;32;20185;-59
2023/10/04 07:28:03;;;;;;;0.47;0.47;;;;;;;14.76;81.13;96675.56;4368464;32;20199;-59
2023/10/04 07:30:29;;;;;;;0.70;0.70;;;;;;;14.88;80.89;96669.81;4345794;32;20177;-60
2023/10/04 07:32:58;;;;;;;0.87;0.87;;;;;;;14.83;80.67;96668.00;4352590;32;20180;-59
2023/10/04 07:35:26;;;;;;;0.83;0.83;;;;;;;14.88;79.82;96673.28;4353787;32;20261;-59
2023/10/04 07:37:53;;;;;;;0.47;0.47;;;;;;;14.83;79.70;96673.34;4352617;32;20180;-59
2023/10/04 07:40:21;;;;;;;0.30;0.30;;;;;;;14.99;79.16;96672.06;4370678;32;20188;-59
2023/10/04 07:42:52;;;;;;;1.17;0.50;;;;;;;14.95;80.05;96679.09;4368317;32;20181;-59
2023/10/04 07:45:19;;;;;;;0.77;0.77;;;;;;;15.08;79.65;96683.72;4332252;32;20172;-59
2023/10/04 07:47:50;;;;;;;0.63;0.63;;;;;;;15.29;78.87;96680.75;4336192;32;20237;-59
2023/10/04 07:50:22;;;;;;;0.40;0.40;;;;;;;15.31;78.81;96679.38;4346724;32;20181;-59
2023/10/04 07:52:52;;;;;;;1.90;0.67;;;;;;;15.33;76.90;96673.75;4340521;32;20196;-60
2023/10/04 07:55:19;;;;;;;1.27;1.00;;;;;;;15.37;76.83;96677.44;4362778;32;20219;-59
2023/10/04 07:58:08;;;;;;;1.27;1.27;;;;;;;15.39;76.54;96680.59;4373663;32;20184;-59
2023/10/04 08:00:36;;;;;;;1.47;0.73;;;;;;;15.54;76.24;96676.91;4376614;32;20169;-60
2023/10/04 08:03:01;;;;;;;0.60;0.60;;;;;;;15.69;76.28;96674.03;4375720;32;20199;-58
2023/10/04 08:05:31;;;;;;;0.50;0.50;;;;;;;15.50;75.92;96671.34;4360165;32;20192;-59
2023/10/04 08:07:58;;;;;;;2.63;0.73;;;;;;;15.26;76.34;96673.31;4372073;32;20220;-60
2023/10/04 08:10:31;;;;;;;0.67;0.67;;;;;;;15.47;76.28;96670.03;4345059;32;20298;-60
2023/10/04 08:13:00;;;;;;;0.73;0.73;;;;;;;15.45;75.50;96660.72;4357883;32;20239;-63
2023/10/04 08:15:27;;;;;;;4.43;0.93;;;;;;;16.22;86.27;96653.00;4347043;32;20282;-63
2023/10/04 08:17:54;;;;;;;0.70;0.67;;;;;;;17.43;85.37;96648.94;4353955;32;20178;-63
2023/10/04 08:20:22;;;;;;;0.70;0.70;;;;;;;17.86;79.54;96651.97;4360966;32;20192;-63
2023/10/04 08:22:48;;;;;;;1.90;1.10;;;;;;;18.16;76.70;96647.69;4326363;32;20196;-63
2023/10/04 08:25:17;;;;;;;0.33;0.33;;;;;;;18.60;73.56;96654.84;4335754;32;20256;-63
2023/10/04 08:27:43;;;;;;;0.40;0.33;;;;;;;18.93;70.41;96649.88;4356170;32;20249;-62
2023/10/04 08:30:12;;;;;;;2.03;0.73;;;;;;;19.06;68.17;96651.66;4357689;32;20196;-63
2023/10/04 08:32:38;;;;;;;0.47;0.47;;;;;;;19.16;66.93;96651.31;4320188;32;20232;-62
2023/10/04 08:35:05;;;;;;;0.50;0.50;;;;;;;19.21;65.72;96645.00;4355584;32;20267;-62
2023/10/04 08:37:31;;;;;;;0.40;0.40;;;;;;;19.29;66.44;96644.22;4351241;32;20181;-62
2023/10/04 08:39:57;;;;;;;0.50;0.50;;;;;;;19.30;64.51;96647.72;4359116;32;20254;-62
2023/10/04 08:42:25;;;;;;;0.50;0.50;;;;;;;19.29;65.22;96649.63;4336633;32;20173;-62
2023/10/04 08:44:52;;;;;;;2.63;1.30;;;;;;;19.13;64.32;96649.25;4351938;32;20192;-62
2023/10/04 08:47:19;;;;;;;0.60;0.60;;;;;;;19.20;64.39;96646.91;4372779;32;20173;-62
2023/10/04 08:49:59;;;;;;;0.43;0.43;;;;;;;19.23;64.01;96651.66;4360082;32;20192;-62
2023/10/04 08:52:37;;;;;;;0.13;0.13;;;;;;;19.11;63.68;96651.50;4353244;32;20222;-62
2023/10/04 08:55:07;;;;;;;0.70;0.70;;;;;;;19.21;63.54;96653.88;4359220;32;20177;-62
2023/10/04 08:57:39;;;;;;;0.40;0.40;;;;;;;19.04;63.83;96650.38;4348540;32;20185;-62
2023/10/04 09:00:13;;;;;;;0.60;0.60;;;;;;;19.04;63.13;96643.09;4339993;32;20185;-60
2023/10/04 09:02:50;;;;;;;1.00;0.80;;;;;;;18.25;60.64;96645.06;4342454;32;20311;-61
2023/10/04 09:05:23;;;;;;;1.03;0.93;;;;;;;17.66;62.48;96645.19;4347404;32;20195;-60
2023/10/04 09:07:51;;;;;;;0.60;0.60;;;;;;;17.41;64.49;96643.09;4352232;32;20188;-60
2023/10/04 09:10:19;;;;;;;0.30;0.30;;;;;;;17.38;64.91;96638.31;4346889;32;20185;-59
2023/10/04 09:12:49;;;;;;;0.10;0.10;;;;;;;17.23;66.37;96636.78;4303270;32;20322;-61
2023/10/04 09:15:15;;;;;;;2.93;0.40;;;;;;;16.93;67.40;96637.44;4353342;32;20203;-60
2023/10/04 09:18:07;;;;;;;0.93;0.70;;;;;;;16.83;66.97;96627.75;4307535;32;20200;-60
2023/10/04 09:20:33;;;;;;;3.90;0.43;;;;;;;16.97;66.97;96631.19;4349277;32;20203;-60
2023/10/04 09:23:00;;;;;;;0.17;0.17;;;;;;;17.06;66.53;96637.41;4359912;32;20173;-59
2023/10/04 09:25:36;;;;;;;1.07;0.67;;;;;;;16.80;66.76;96633.72;4354277;32;20260;-61
2023/10/04 09:28:04;;;;;;;0.50;0.50;;;;;;;16.59;66.80;96638.66;4359401;32;20185;-60
2023/10/04 09:30:32;;;;;;;0.67;0.67;;;;;;;16.72;67.71;96637.09;4372350;32;20196;-60
2023/10/04 09:32:58;;;;;;;0.97;0.77;;;;;;;16.71;67.16;96635.50;4357834;32;20224;-60
2023/10/04 09:35:41;;;;;;;0.70;0.70;;;;;;;16.53;68.25;96639.06;4360395;32;20189;-60
2023/10/04 09:38:35;;;;;;;2.43;0.90;;;;;;;16.58;67.24;96622.88;4360603;32;20224;-61
2023/10/04 09:41:04;;;;;;;0.23;0.23;;;;;;;16.83;67.82;96625.06;4361345;32;20204;-60
2023/10/04 09:43:37;;;;;;;0.50;0.50;;;;;;;16.86;67.55;96620.97;4364528;32;20218;-61
2023/10/04 09:46:26;;;;;;;1.07;0.97;;;;;;;16.89;65.90;96615.81;4340955;32;20181;-60
2023/10/04 09:48:54;;;;;;;1.17;0.90;;;;;;;17.13;65.78;96612.88;4357232;32;20192;-60
2023/10/04 09:51:21;;;;;;;0.40;0.40;;;;;;;17.01;67.16;96618.78;4374644;32;20181;-60
2023/10/04 09:53:46;;;;;;;2.10;1.03;;;;;;;16.98;66.33;96618.56;4345975;32;20286;-60
2023/10/04 09:56:16;;;;;;;1.47;0.83;;;;;;;16.74;67.10;96613.47;4331712;32;20264;-59
2023/10/04 09:58:52;;;;;;;0.80;0.80;;;;;;;16.57;68.04;96614.06;4348689;32;20276;-60
2023/10/04 10:01:25;;;;;;;0.57;0.57;;;;;;;16.50;68.12;96622.47;4338601;32;20207;-60
2023/10/04 10:04:23;;;;;;;11.07;0.83;;;;;;;16.63;67.85;96612.03;4360935;32;20185;-61
2023/10/04 10:07:16;;;;;;;3.83;1.40;;;;;;;16.51;68.25;96599.16;4360533;32;20290;-60
2023/10/04 10:10:05;;;;;;;4.63;1.20;;;;;;;16.54;68.60;96603.13;4370390;32;20211;-60
2023/10/04 10:12:32;;;;;;;1.33;1.23;;;;;;;16.48;68.76;96605.91;4333712;32;20219;-60
2023/10/04 10:15:11;;;;;;;0.10;0.10;;;;;;;16.64;67.95;96597.56;4337487;32;20215;-60
2023/10/04 10:17:38;;;;;;;2.40;1.33;;;;;;;16.44;68.46;96594.19;4361840;32;20240;-60
2023/10/04 10:20:16;;;;;;;0.40;0.40;;;;;;;16.48;69.50;96584.47;4345576;32;20192;-60
2023/10/04 10:23:01;;;;;;;0.57;0.57;;;;;;;16.67;68.59;96597.78;4355779;32;20219;-60
2023/10/04 10:25:29;;;;;;;1.40;0.87;;;;;;;16.64;68.12;96598.38;4362484;32;20235;-60
2023/10/04 10:27:57;;;;;;;0.57;0.57;;;;;;;16.45;68.86;96600.34;4324401;32;20181;-60
2023/10/04 10:30:25;;;;;;;0.93;0.93;;;;;;;16.48;66.70;96597.06;4377046;32;20244;-60
2023/10/04 10:32:59;;;;;;;0.53;0.53;;;;;;;16.56;66.24;96595.59;4364373;32;20207;-60
2023/10/04 10:35:48;;;;;;;0.30;0.30;;;;;;;16.63;66.10;96583.38;4370669;32;20263;-60
2023/10/04 10:39:01;;;;;;;0.20;0.20;;;;;;;16.71;65.29;96585.38;4324100;32;20324;-59
2023/10/04 10:41:32;;;;;;;0.37;0.37;;;;;;;16.79;65.52;96578.50;4339360;32;20189;-61
2023/10/04 10:44:39;;;;;;;1.50;1.10;;;;;;;16.92;65.08;96577.66;4348994;32;20216;-60
2023/10/04 10:47:27;;;;;;;0.27;0.27;;;;;;;16.93;64.42;96573.09;4359541;32;20181;-60
2023/10/04 10:49:56;;;;;;;0.70;0.70;;;;;;;17.02;64.09;96571.31;4355093;32;20188;-60
2023/10/04 10:52:43;;;;;;;1.70;0.70;;;;;;;16.99;62.67;96572.69;4322063;32;20212;-59
2023/10/04 10:55:27;;;;;;;1.80;1.30;;;;;;;17.08;61.71;96570.87;4345405;32;20181;-60
2023/10/04 10:57:57;;;;;;;0.93;0.63;;;;;;;17.10;63.31;96563.31;4321051;32;20227;-59
2023/10/04 11:00:26;;;;;;;0.30;0.30;;;;;;;17.05;62.00;96555.37;4360436;32;20200;-61
2023/10/04 11:02:53;;;;;;;0.47;0.47;;;;;;;16.96;62.87;96556.41;4356838;32;20251;-61
2023/10/04 11:05:25;;;;;;;2.13;1.07;;;;;;;17.10;63.45;96551.78;4360905;32;20227;-61
2023/10/04 11:07:58;;;;;;;0.30;0.30;;;;;;;17.09;62.43;96559.03;4374446;32;20185;-61
2023/10/04 11:10:25;;;;;;;0.40;0.40;;;;;;;17.15;63.63;96555.16;4359021;32;20181;-61
2023/10/04 11:13:03;;;;;;;0.70;0.70;;;;;;;17.18;64.09;96556.44;4363488;32;20232;-61
2023/10/04 11:15:29;;;;;;;0.37;0.37;;;;;;;17.17;62.09;96555.66;4359961;32;20196;-61
2023/10/04 11:17:56;;;;;;;0.67;0.63;;;;;;;17.22;63.72;96553.94;4364240;32;20197;-61
2023/10/04 11:20:23;;;;;;;1.30;0.83;;;;;;;17.20;64.12;96550.78;4345356;32;20196;-61
2023/10/04 11:22:49;;;;;;;0.30;0.30;;;;;;;17.34;62.03;96551.50;4359581;32;20207;-61
2023/10/04 11:25:18;;;;;;;0.73;0.63;;;;;;;17.41;61.38;96547.28;4339007;32;20212;-60
2023/10/04 11:27:47;;;;;;;0.00;0.00;;;;;;;17.47;60.33;96545.25;4345006;32;20296;-60
2023/10/04 11:30:26;;;;;;;0.27;0.27;;;;;;;17.49;61.82;96537.69;4338329;32;20185;-60
2023/10/04 11:32:52;;;;;;;0.57;0.27;;;;;;;17.49;62.31;96537.69;4348524;32;20188;-60
2023/10/04 11:35:19;;;;;;;0.30;0.30;;;;;;;17.49;61.74;96526.94;4336052;32;20193;-61
2023/10/04 11:37:50;;;;;;;0.20;0.20;;;;;;;17.49;60.83;96527.75;4335661;32;20217;-61
2023/10/04 11:40:22;;;;;;;2.07;0.83;;;;;;;17.49;61.67;96524.28;4338831;32;20280;-60
2023/10/04 11:42:59;;;;;;;0.70;0.70;;;;;;;17.55;60.42;96522.25;4329319;32;20239;-61
2023/10/04 11:45:27;;;;;;;0.20;0.20;;;;;;;17.63;60.89;96521.53;4348374;32;20243;-62
2023/10/04 11:48:14;;;;;;;0.70;0.70;;;;;;;17.58;60.62;96513.59;4341832;32;20246;-60
2023/10/04 11:50:56;;;;;;;0.70;0.70;;;;;;;17.68;60.64;96506.09;4340790;32;20192;-61